createdAt,value
2017-04-13T00:01:17.320Z,1010.87
2017-04-13T00:02:39.764Z,1010.88
2017-04-13T00:04:01.024Z,1010.9
2017-04-13T00:05:22.848Z,1010.93
2017-04-13T00:06:45.048Z,1010.92
2017-04-13T00:08:07.200Z,1010.93
2017-04-13T00:09:29.039Z,1010.92
2017-04-13T00:10:50.877Z,1010.94
2017-04-13T00:12:13.098Z,1010.96
2017-04-13T00:13:35.279Z,1010.92
2017-04-13T00:14:57.418Z,1010.84
2017-04-13T00:16:19.571Z,1010.83
2017-04-13T00:17:42.321Z,1010.86
2017-04-13T00:19:04.599Z,1010.83
2017-04-13T00:20:26.113Z,1010.81
2017-04-13T00:21:47.308Z,1010.86
2017-04-13T00:23:09.873Z,1010.84
2017-04-13T00:24:32.347Z,1010.81
2017-04-13T00:25:54.195Z,1010.81
2017-04-13T00:27:16.037Z,1010.78
2017-04-13T00:28:37.801Z,1010.7
2017-04-13T00:29:59.934Z,1010.72
2017-04-13T00:31:21.434Z,1010.64
2017-04-13T00:32:43.685Z,1010.56
2017-04-13T00:34:06.531Z,1010.55
2017-04-13T00:35:28.399Z,1010.5
2017-04-13T00:38:32.039Z,1010.47
2017-04-13T00:39:54.519Z,1010.5
2017-04-13T00:41:15.972Z,1010.48
2017-04-13T00:42:38.055Z,1010.47
2017-04-13T00:43:59.856Z,1010.5
2017-04-13T00:45:22.189Z,1010.51
2017-04-13T00:46:43.719Z,1010.51
2017-04-13T00:48:06.107Z,1010.57
2017-04-13T00:49:28.507Z,1010.58
2017-04-13T00:50:50.554Z,1010.56
2017-04-13T00:52:12.367Z,1010.52
2017-04-13T00:53:34.268Z,1010.49
2017-04-13T00:54:56.088Z,1010.5
2017-04-13T00:56:17.931Z,1010.48
2017-04-13T00:57:39.453Z,1010.45
2017-04-13T00:59:00.965Z,1010.42
2017-04-13T01:00:23.119Z,1010.43
2017-04-13T01:01:45.190Z,1010.43
2017-04-13T01:03:07.028Z,1010.46
2017-04-13T01:04:27.900Z,1010.47
2017-04-13T01:05:49.808Z,1010.51
2017-04-13T01:07:12.030Z,1010.49
2017-04-13T01:08:34.211Z,1010.5
2017-04-13T01:09:56.443Z,1010.5
2017-04-13T01:11:18.318Z,1010.44
2017-04-13T01:12:40.598Z,1010.4
2017-04-13T01:14:02.736Z,1010.38
2017-04-13T01:15:24.875Z,1010.34
2017-04-13T01:16:47.023Z,1010.32
2017-04-13T01:18:09.145Z,1010.38
2017-04-13T01:19:30.663Z,1010.38
2017-04-13T01:20:52.791Z,1010.38
2017-04-13T01:22:14.930Z,1010.34
2017-04-13T01:23:37.396Z,1010.39
2017-04-13T01:24:59.870Z,1010.39
2017-04-13T01:26:21.710Z,1010.38
2017-04-13T01:27:44.066Z,1010.35
2017-04-13T01:29:06.588Z,1010.37
2017-04-13T01:30:28.735Z,1010.34
2017-04-13T01:31:50.259Z,1010.31
2017-04-13T01:33:11.808Z,1010.37
2017-04-13T01:34:34.309Z,1010.32
2017-04-13T01:35:56.807Z,1010.24
2017-04-13T01:37:18.662Z,1010.28
2017-04-13T01:38:39.855Z,1010.29
2017-04-13T01:40:02.037Z,1010.32
2017-04-13T01:41:23.865Z,1010.28
2017-04-13T01:42:45.379Z,1010.33
2017-04-13T01:44:07.879Z,1010.33
2017-04-13T01:45:30.353Z,1010.3
2017-04-13T01:46:52.289Z,1010.36
2017-04-13T01:48:14.118Z,1010.32
2017-04-13T01:49:36.296Z,1010.29
2017-04-13T01:50:58.478Z,1010.25
2017-04-13T01:52:20.334Z,1010.25
2017-04-13T01:53:42.579Z,1010.27
2017-04-13T01:55:04.780Z,1010.24
2017-04-13T01:56:27.284Z,1010.25
2017-04-13T01:57:49.117Z,1010.22
2017-04-13T01:59:10.319Z,1010.25
2017-04-13T02:00:32.237Z,1010.26
2017-04-13T02:01:54.736Z,1010.3
2017-04-13T02:03:16.891Z,1010.3
2017-04-13T02:04:39.415Z,1010.36
2017-04-13T02:06:01.249Z,1010.36
2017-04-13T02:07:23.424Z,1010.4
2017-04-13T02:08:44.941Z,1010.34
2017-04-13T02:10:06.768Z,1010.38
2017-04-13T02:11:28.931Z,1010.43
2017-04-13T02:12:51.372Z,1010.39
2017-04-13T02:14:12.756Z,1010.45
2017-04-13T02:15:34.646Z,1010.45
2017-04-13T02:16:56.786Z,1010.46
2017-04-13T02:18:18.871Z,1010.4
2017-04-13T02:19:40.718Z,1010.45
2017-04-13T02:21:02.541Z,1010.48
2017-04-13T02:22:24.356Z,1010.51
2017-04-13T02:23:47.164Z,1010.52
2017-04-13T02:25:09.064Z,1010.52
2017-04-13T02:26:30.893Z,1010.46
2017-04-13T02:27:52.723Z,1010.5
2017-04-13T02:29:15.491Z,1010.51
2017-04-13T02:30:37.014Z,1010.46
2017-04-13T02:31:58.857Z,1010.46
2017-04-13T02:33:21.015Z,1010.42
2017-04-13T02:34:43.602Z,1010.45
2017-04-13T02:36:06.067Z,1010.44
2017-04-13T02:37:28.196Z,1010.43
2017-04-13T02:38:50.009Z,1010.43
2017-04-13T02:40:12.297Z,1010.41
2017-04-13T02:41:34.769Z,1010.45
2017-04-13T02:42:56.610Z,1010.43
2017-04-13T02:44:17.795Z,1010.4
2017-04-13T02:45:39.907Z,1010.39
2017-04-13T02:47:02.396Z,1010.45
2017-04-13T02:48:24.203Z,1010.37
2017-04-13T02:49:46.028Z,1010.35
2017-04-13T02:51:08.937Z,1010.39
2017-04-13T02:52:31.401Z,1010.33
2017-04-13T02:53:53.319Z,1010.3
2017-04-13T02:55:15.536Z,1010.3
2017-04-13T02:56:37.406Z,1010.32
2017-04-13T02:57:59.528Z,1010.31
2017-04-13T02:59:21.774Z,1010.34
2017-04-13T03:00:43.578Z,1010.31
2017-04-13T03:02:06.020Z,1010.39
2017-04-13T03:03:28.289Z,1010.34
2017-04-13T03:04:50.122Z,1010.34
2017-04-13T03:06:11.945Z,1010.34
2017-04-13T03:07:34.159Z,1010.36
2017-04-13T03:08:56.359Z,1010.37
2017-04-13T03:10:18.819Z,1010.43
2017-04-13T03:11:40.959Z,1010.38
2017-04-13T03:13:03.398Z,1010.37
2017-04-13T03:14:25.605Z,1010.32
2017-04-13T03:15:48.107Z,1010.33
2017-04-13T03:17:10.567Z,1010.35
2017-04-13T03:18:32.711Z,1010.34
2017-04-13T03:19:55.360Z,1010.39
2017-04-13T03:21:17.188Z,1010.33
2017-04-13T03:22:38.700Z,1010.36
2017-04-13T03:24:01.468Z,1010.43
2017-04-13T03:25:22.979Z,1010.42
2017-04-13T03:26:45.126Z,1010.52
2017-04-13T03:28:07.285Z,1010.49
2017-04-13T03:29:29.458Z,1010.53
2017-04-13T03:30:51.586Z,1010.63
2017-04-13T03:32:13.413Z,1010.69
2017-04-13T03:33:35.558Z,1010.81
2017-04-13T03:34:58.449Z,1010.79
2017-04-13T03:36:20.007Z,1010.78
2017-04-13T03:37:42.140Z,1010.75
2017-04-13T03:39:03.989Z,1010.73
2017-04-13T03:40:26.066Z,1010.69
2017-04-13T03:41:47.579Z,1010.71
2017-04-13T03:43:09.394Z,1010.72
2017-04-13T03:44:30.910Z,1010.76
2017-04-13T03:45:53.448Z,1010.7
2017-04-13T03:47:14.661Z,1010.7
2017-04-13T03:48:36.799Z,1010.67
2017-04-13T03:49:58.968Z,1010.69
2017-04-13T03:51:21.137Z,1010.65
2017-04-13T03:52:43.273Z,1010.62
2017-04-13T03:54:05.399Z,1010.67
2017-04-13T03:55:27.601Z,1010.73
2017-04-13T03:56:50.409Z,1010.85
2017-04-13T03:58:12.327Z,1010.88
2017-04-13T03:59:34.559Z,1010.86
2017-04-13T04:00:56.078Z,1010.83
2017-04-13T04:02:17.911Z,1010.72
2017-04-13T04:03:40.056Z,1010.67
2017-04-13T04:05:02.218Z,1010.57
2017-04-13T04:06:23.739Z,1010.54
2017-04-13T04:07:45.815Z,1010.6
2017-04-13T04:09:07.318Z,1010.62
2017-04-13T04:10:29.162Z,1010.72
2017-04-13T04:11:50.984Z,1010.61
2017-04-13T04:13:13.132Z,1010.53
2017-04-13T04:14:35.588Z,1010.52
2017-04-13T04:15:57.745Z,1010.49
2017-04-13T04:17:19.259Z,1010.57
2017-04-13T04:18:41.733Z,1010.57
2017-04-13T04:20:03.579Z,1010.53
2017-04-13T04:21:25.768Z,1010.48
2017-04-13T04:22:47.486Z,1010.56
2017-04-13T04:24:09.933Z,1010.59
2017-04-13T04:25:31.146Z,1010.46
2017-04-13T04:26:53.302Z,1010.48
2017-04-13T04:28:15.125Z,1010.4
2017-04-13T04:29:37.951Z,1010.4
2017-04-13T04:31:00.141Z,1010.43
2017-04-13T04:32:22.413Z,1010.38
2017-04-13T04:33:44.844Z,1010.4
2017-04-13T04:35:07.345Z,1010.35
2017-04-13T04:36:28.858Z,1010.31
2017-04-13T04:37:50.368Z,1010.34
2017-04-13T04:39:11.884Z,1010.38
2017-04-13T04:40:34.590Z,1010.34
2017-04-13T04:41:56.152Z,1010.37
2017-04-13T04:43:17.739Z,1010.31
2017-04-13T04:44:38.928Z,1010.29
2017-04-13T04:46:00.996Z,1010.36
2017-04-13T04:47:22.486Z,1010.43
2017-04-13T04:48:44.840Z,1010.39
2017-04-13T04:50:38.153Z,1010.47
2017-04-13T04:52:00.422Z,1010.5
2017-04-13T04:53:22.872Z,1010.5
2017-04-13T04:54:44.376Z,1010.51
2017-04-13T04:56:06.507Z,1010.53
2017-04-13T04:57:28.258Z,1010.53
2017-04-13T04:58:49.381Z,1010.53
2017-04-13T05:00:11.853Z,1010.55
2017-04-13T05:01:33.740Z,1010.5
2017-04-13T05:02:56.480Z,1010.57
2017-04-13T05:04:18.629Z,1010.6
2017-04-13T05:05:41.204Z,1010.62
2017-04-13T05:07:02.430Z,1010.62
2017-04-13T05:08:24.597Z,1010.67
2017-04-13T05:09:47.053Z,1010.67
2017-04-13T05:11:08.881Z,1010.74
2017-04-13T05:12:31.020Z,1010.76
2017-04-13T05:13:53.411Z,1010.77
2017-04-13T05:15:15.634Z,1010.79
2017-04-13T05:16:37.794Z,1010.8
2017-04-13T05:18:00.009Z,1010.76
2017-04-13T05:19:22.428Z,1010.76
2017-04-13T05:20:43.948Z,1010.79
2017-04-13T05:22:06.101Z,1010.77
2017-04-13T05:23:28.561Z,1010.81
2017-04-13T05:24:50.695Z,1010.86
2017-04-13T05:26:12.520Z,1010.88
2017-04-13T05:27:34.349Z,1010.9
2017-04-13T05:28:56.175Z,1010.9
2017-04-13T05:30:18.680Z,1010.91
2017-04-13T05:31:40.846Z,1010.87
2017-04-13T05:33:03.317Z,1010.91
2017-04-13T05:34:25.565Z,1010.99
2017-04-13T05:35:47.514Z,1011.04
2017-04-13T05:37:09.636Z,1011.04
2017-04-13T05:38:31.948Z,1011.05
2017-04-13T05:39:53.470Z,1011.17
2017-04-13T05:41:15.647Z,1011.18
2017-04-13T05:42:37.828Z,1011.16
2017-04-13T05:43:59.052Z,1011.18
2017-04-13T05:45:21.001Z,1011.27
2017-04-13T05:46:43.510Z,1011.28
2017-04-13T05:48:05.978Z,1011.32
2017-04-13T05:49:28.110Z,1011.36
2017-04-13T05:50:49.671Z,1011.4
2017-04-13T05:52:12.139Z,1011.45
2017-04-13T05:53:34.268Z,1011.5
2017-04-13T05:54:55.768Z,1011.42
2017-04-13T05:56:18.349Z,1011.51
2017-04-13T05:57:40.696Z,1011.45
2017-04-13T05:59:02.837Z,1011.51
2017-04-13T06:00:24.359Z,1011.48
2017-04-13T06:01:46.239Z,1011.55
2017-04-13T06:03:08.759Z,1011.42
2017-04-13T06:04:30.959Z,1011.37
2017-04-13T06:05:52.492Z,1011.43
2017-04-13T06:07:14.220Z,1011.43
2017-04-13T06:08:36.379Z,1011.53
2017-04-13T06:09:58.248Z,1011.52
2017-04-13T06:11:20.399Z,1011.64
2017-04-13T06:12:42.869Z,1011.5
2017-04-13T06:14:04.828Z,1011.52
2017-04-13T06:15:27.019Z,1011.55
2017-04-13T06:16:48.567Z,1011.59
2017-04-13T06:18:11.028Z,1011.64
2017-04-13T06:19:32.816Z,1011.57
2017-04-13T06:20:54.338Z,1011.55
2017-04-13T06:22:16.199Z,1011.66
2017-04-13T06:23:38.024Z,1011.59
2017-04-13T06:25:00.888Z,1011.65
2017-04-13T06:26:22.099Z,1011.73
2017-04-13T06:27:43.625Z,1011.8
2017-04-13T06:29:05.509Z,1011.71
2017-04-13T06:30:27.603Z,1011.65
2017-04-13T06:31:48.849Z,1011.63
2017-04-13T06:33:11.008Z,1011.8
2017-04-13T06:34:33.298Z,1011.83
2017-04-13T06:35:55.450Z,1011.74
2017-04-13T06:37:17.374Z,1011.9
2017-04-13T06:38:39.646Z,1011.9
2017-04-13T06:40:01.167Z,1011.81
2017-04-13T06:41:23.629Z,1011.99
2017-04-13T06:42:46.380Z,1011.92
2017-04-13T06:44:08.105Z,1011.95
2017-04-13T06:45:29.932Z,1011.98
2017-04-13T06:46:52.461Z,1011.95
2017-04-13T06:48:14.300Z,1011.94
2017-04-13T06:49:36.502Z,1011.8
2017-04-13T06:50:58.038Z,1011.77
2017-04-13T06:52:20.708Z,1012.06
2017-04-13T06:53:42.549Z,1012.05
2017-04-13T06:55:04.718Z,1012.04
2017-04-13T06:56:26.602Z,1012.06
2017-04-13T06:57:48.696Z,1011.9
2017-04-13T06:59:10.864Z,1012.07
2017-04-13T07:00:32.445Z,1012.09
2017-04-13T07:01:54.290Z,1012.09
2017-04-13T07:03:15.990Z,1012.12
2017-04-13T07:04:38.169Z,1012.22
2017-04-13T07:06:00.645Z,1011.99
2017-04-13T07:07:21.545Z,1012
2017-04-13T07:08:43.244Z,1012.29
2017-04-13T07:10:05.495Z,1012.3
2017-04-13T07:11:27.678Z,1012.12
2017-04-13T07:12:49.886Z,1012.34
2017-04-13T07:14:12.307Z,1012.38
2017-04-13T07:15:34.177Z,1012.07
2017-04-13T07:16:56.757Z,1012.05
2017-04-13T07:18:18.627Z,1012.08
2017-04-13T07:19:40.395Z,1012.21
2017-04-13T07:21:02.856Z,1012.14
2017-04-13T07:22:25.047Z,1012.12
2017-04-13T07:23:46.898Z,1012.34
2017-04-13T07:25:09.037Z,1012.38
2017-04-13T07:26:30.886Z,1012.29
2017-04-13T07:27:53.188Z,1012.43
2017-04-13T07:29:15.678Z,1012.37
2017-04-13T07:30:37.176Z,1012.44
2017-04-13T07:31:59.012Z,1012.22
2017-04-13T07:33:20.239Z,1012.12
2017-04-13T07:34:42.133Z,1012.15
2017-04-13T07:36:04.100Z,1012.13
2017-04-13T07:37:25.687Z,1012.06
2017-04-13T07:38:47.887Z,1012.17
2017-04-13T07:40:10.356Z,1012.23
2017-04-13T07:41:32.478Z,1012.16
2017-04-13T07:42:54.337Z,1012.2
2017-04-13T07:44:16.488Z,1012.17
2017-04-13T07:45:38.668Z,1012.23
2017-04-13T07:47:00.774Z,1012.25
2017-04-13T07:48:23.337Z,1012.31
2017-04-13T07:49:45.508Z,1012.41
2017-04-13T07:51:07.640Z,1012.34
2017-04-13T07:52:29.436Z,1012.2
2017-04-13T07:53:50.399Z,1012.4
2017-04-13T07:55:12.687Z,1012.24
2017-04-13T07:56:34.529Z,1012.27
2017-04-13T07:57:56.449Z,1012.17
2017-04-13T07:59:18.084Z,1012.19
2017-04-13T08:00:40.256Z,1012.24
2017-04-13T08:02:02.298Z,1012.1
2017-04-13T08:03:24.697Z,1012.24
2017-04-13T08:04:47.149Z,1012.33
2017-04-13T08:06:09.027Z,1012.29
2017-04-13T08:07:31.507Z,1012.29
2017-04-13T08:08:54.217Z,1012.31
2017-04-13T08:10:15.949Z,1012.33
2017-04-13T08:11:38.406Z,1012.21
2017-04-13T08:13:00.240Z,1012.25
2017-04-13T08:14:22.459Z,1012.34
2017-04-13T08:15:44.303Z,1012.33
2017-04-13T08:17:06.657Z,1012.37
2017-04-13T08:18:28.819Z,1012.32
2017-04-13T08:19:51.609Z,1012.41
2017-04-13T08:21:13.449Z,1012.46
2017-04-13T08:22:35.050Z,1012.47
2017-04-13T08:23:57.562Z,1012.55
2017-04-13T08:25:20.059Z,1012.52
2017-04-13T08:26:41.885Z,1012.58
2017-04-13T08:28:03.715Z,1012.58
2017-04-13T08:29:26.319Z,1012.53
2017-04-13T08:30:48.957Z,1012.58
2017-04-13T08:32:10.787Z,1012.57
2017-04-13T08:33:32.766Z,1012.65
2017-04-13T08:34:54.764Z,1012.63
2017-04-13T08:36:16.950Z,1012.55
2017-04-13T08:37:38.476Z,1012.42
2017-04-13T08:39:00.686Z,1012.62
2017-04-13T08:40:22.980Z,1012.61
2017-04-13T08:41:44.938Z,1012.6
2017-04-13T08:43:07.090Z,1012.57
2017-04-13T08:44:29.618Z,1012.55
2017-04-13T08:45:51.794Z,1012.46
2017-04-13T08:47:13.555Z,1012.55
2017-04-13T08:48:35.787Z,1012.54
2017-04-13T08:49:58.494Z,1012.49
2017-04-13T08:51:20.949Z,1012.38
2017-04-13T08:52:42.515Z,1012.44
2017-04-13T08:54:04.655Z,1012.45
2017-04-13T08:55:25.986Z,1012.47
2017-04-13T08:56:48.210Z,1012.58
2017-04-13T08:58:11.015Z,1012.46
2017-04-13T08:59:33.468Z,1012.47
2017-04-13T09:00:55.310Z,1012.46
2017-04-13T09:02:17.527Z,1012.67
2017-04-13T09:03:40.076Z,1012.68
2017-04-13T09:05:02.263Z,1012.72
2017-04-13T09:06:24.109Z,1012.65
2017-04-13T09:07:45.996Z,1012.7
2017-04-13T09:09:08.135Z,1012.69
2017-04-13T09:10:30.078Z,1012.72
2017-04-13T09:11:52.236Z,1012.67
2017-04-13T09:13:14.085Z,1012.66
2017-04-13T09:14:36.374Z,1012.61
2017-04-13T09:15:57.936Z,1012.69
2017-04-13T09:17:19.949Z,1012.64
2017-04-13T09:18:41.471Z,1012.68
2017-04-13T09:20:03.707Z,1012.71
2017-04-13T09:21:25.293Z,1012.84
2017-04-13T09:22:47.459Z,1012.91
2017-04-13T09:24:09.306Z,1012.77
2017-04-13T09:25:31.459Z,1012.93
2017-04-13T09:26:53.286Z,1012.86
2017-04-13T09:28:15.414Z,1012.91
2017-04-13T09:29:36.943Z,1012.73
2017-04-13T09:30:58.911Z,1012.78
2017-04-13T09:32:21.387Z,1012.88
2017-04-13T09:33:43.221Z,1012.73
2017-04-13T09:35:04.726Z,1012.76
2017-04-13T09:36:26.832Z,1012.78
2017-04-13T09:37:48.685Z,1012.76
2017-04-13T09:39:11.156Z,1012.72
2017-04-13T09:40:33.081Z,1012.88
2017-04-13T09:41:55.687Z,1012.81
2017-04-13T09:43:18.156Z,1012.92
2017-04-13T09:44:40.017Z,1012.97
2017-04-13T09:46:01.876Z,1012.97
2017-04-13T09:47:24.683Z,1012.95
2017-04-13T09:48:46.700Z,1012.92
2017-04-13T09:50:08.636Z,1012.89
2017-04-13T09:51:31.126Z,1012.93
2017-04-13T09:52:53.708Z,1012.93
2017-04-13T09:54:16.374Z,1012.7
2017-04-13T09:55:38.381Z,1012.75
2017-04-13T09:56:59.902Z,1012.9
2017-04-13T09:58:22.415Z,1013.01
2017-04-13T09:59:44.887Z,1013.01
2017-04-13T10:01:06.396Z,1013.04
2017-04-13T10:02:28.538Z,1013.06
2017-04-13T10:03:50.686Z,1013.07
2017-04-13T10:05:13.170Z,1012.98
2017-04-13T10:06:35.331Z,1012.94
2017-04-13T10:07:57.154Z,1012.92
2017-04-13T10:09:19.359Z,1013
2017-04-13T10:10:41.196Z,1012.95
2017-04-13T10:12:03.356Z,1012.97
2017-04-13T10:13:25.842Z,1012.98
2017-04-13T10:14:47.728Z,1012.93
2017-04-13T10:16:09.575Z,1012.97
2017-04-13T10:17:31.807Z,1012.9
2017-04-13T10:18:54.013Z,1013.13
2017-04-13T10:20:16.799Z,1013.21
2017-04-13T10:21:38.642Z,1013.29
2017-04-13T10:23:00.497Z,1013.21
2017-04-13T10:24:22.669Z,1013.22
2017-04-13T10:25:45.533Z,1013.23
2017-04-13T10:27:07.111Z,1013.23
2017-04-13T10:28:29.262Z,1013.01
2017-04-13T10:29:51.407Z,1013.18
2017-04-13T10:31:14.137Z,1013.15
2017-04-13T10:32:36.627Z,1013.16
2017-04-13T10:33:58.472Z,1013.1
2017-04-13T10:35:20.379Z,1013.14
2017-04-13T10:36:43.116Z,1013.16
2017-04-13T10:38:04.628Z,1013.31
2017-04-13T10:39:27.122Z,1013.24
2017-04-13T10:40:48.327Z,1013.26
2017-04-13T10:42:10.797Z,1013.25
2017-04-13T10:43:32.972Z,1013.31
2017-04-13T10:44:54.819Z,1013.29
2017-04-13T10:46:16.645Z,1013.41
2017-04-13T10:47:38.822Z,1013.36
2017-04-13T10:49:01.109Z,1013.23
2017-04-13T10:50:23.094Z,1013.22
2017-04-13T10:51:45.270Z,1013.26
2017-04-13T10:53:07.453Z,1013.16
2017-04-13T10:54:29.291Z,1013.15
2017-04-13T10:55:51.206Z,1013.14
2017-04-13T10:57:13.159Z,1013.09
2017-04-13T10:58:35.588Z,1013.22
2017-04-13T10:59:57.445Z,1013.33
2017-04-13T11:01:19.909Z,1013.31
2017-04-13T11:02:41.786Z,1013.25
2017-04-13T11:04:03.961Z,1013.22
2017-04-13T11:05:26.105Z,1013.14
2017-04-13T11:06:47.637Z,1013.1
2017-04-13T11:08:09.573Z,1013.2
2017-04-13T11:09:32.342Z,1013.24
2017-04-13T11:10:54.487Z,1013.34
2017-04-13T11:12:17.112Z,1013.4
2017-04-13T11:13:38.008Z,1013.43
2017-04-13T11:15:00.101Z,1013.44
2017-04-13T11:16:21.979Z,1013.52
2017-04-13T11:17:44.135Z,1013.52
2017-04-13T11:19:06.617Z,1013.57
2017-04-13T11:20:28.939Z,1013.6
2017-04-13T11:21:50.829Z,1013.67
2017-04-13T11:23:12.968Z,1013.85
2017-04-13T11:24:34.808Z,1013.84
2017-04-13T11:25:57.385Z,1013.82
2017-04-13T11:27:19.888Z,1013.8
2017-04-13T11:28:42.033Z,1013.83
2017-04-13T11:30:04.201Z,1013.75
2017-04-13T11:31:26.609Z,1013.77
2017-04-13T11:32:48.458Z,1013.85
2017-04-13T11:34:10.937Z,1013.75
2017-04-13T11:35:32.769Z,1013.78
2017-04-13T11:36:55.687Z,1013.76
2017-04-13T11:38:17.820Z,1013.75
2017-04-13T11:39:40.005Z,1013.77
2017-04-13T11:41:02.249Z,1013.8
2017-04-13T11:42:24.797Z,1013.85
2017-04-13T11:43:47.213Z,1013.82
2017-04-13T11:45:09.387Z,1013.93
2017-04-13T11:46:31.252Z,1013.84
2017-04-13T11:47:53.662Z,1013.88
2017-04-13T11:49:16.151Z,1013.86
2017-04-13T11:50:38.019Z,1013.87
2017-04-13T11:51:59.936Z,1013.96
2017-04-13T11:53:22.077Z,1013.83
2017-04-13T11:54:43.998Z,1013.87
2017-04-13T11:56:06.491Z,1013.76
2017-04-13T11:57:29.042Z,1013.85
2017-04-13T11:58:51.840Z,1013.86
2017-04-13T12:00:14.088Z,1013.88
2017-04-13T12:01:36.249Z,1013.76
2017-04-13T12:02:58.435Z,1013.89
2017-04-13T12:04:20.947Z,1013.78
2017-04-13T12:05:42.809Z,1013.78
2017-04-13T12:07:05.308Z,1013.74
2017-04-13T12:08:27.776Z,1013.64
2017-04-13T12:09:50.599Z,1013.67
2017-04-13T12:11:12.445Z,1013.72
2017-04-13T12:12:34.614Z,1013.75
2017-04-13T12:13:57.108Z,1013.71
2017-04-13T12:15:19.954Z,1013.74
2017-04-13T12:16:42.138Z,1013.69
2017-04-13T12:18:04.638Z,1013.73
2017-04-13T12:19:27.147Z,1013.83
2017-04-13T12:20:48.978Z,1013.81
2017-04-13T12:22:10.817Z,1013.83
2017-04-13T12:23:32.998Z,1013.73
2017-04-13T12:24:55.144Z,1013.8
2017-04-13T12:26:17.157Z,1013.83
2017-04-13T12:27:38.989Z,1013.81
2017-04-13T12:29:00.827Z,1013.91
2017-04-13T12:30:22.819Z,1014.19
2017-04-13T12:31:44.987Z,1014.13
2017-04-13T12:33:07.160Z,1014.14
2017-04-13T12:34:28.988Z,1014.18
2017-04-13T12:35:51.195Z,1014.15
2017-04-13T12:37:13.917Z,1014.29
2017-04-13T12:38:36.086Z,1014.21
2017-04-13T12:39:58.299Z,1014.21
2017-04-13T12:41:20.856Z,1014.23
2017-04-13T12:42:42.998Z,1014.2
2017-04-13T12:44:05.470Z,1014.31
2017-04-13T12:45:27.287Z,1014.15
2017-04-13T12:46:49.158Z,1014.09
2017-04-13T12:48:11.935Z,1014.12
2017-04-13T12:49:34.446Z,1014.19
2017-04-13T12:50:55.977Z,1014.09
2017-04-13T12:52:18.247Z,1014.11
2017-04-13T12:53:41.027Z,1014.04
2017-04-13T12:55:02.604Z,1014.07
2017-04-13T12:56:24.817Z,1014.03
2017-04-13T12:57:47.009Z,1013.98
2017-04-13T12:59:09.826Z,1013.97
2017-04-13T13:00:31.994Z,1013.93
2017-04-13T13:01:53.818Z,1013.98
2017-04-13T13:03:15.348Z,1013.98
2017-04-13T13:04:37.797Z,1014.02
2017-04-13T13:06:00.068Z,1013.98
2017-04-13T13:07:21.901Z,1014.05
2017-04-13T13:08:44.361Z,1014
2017-04-13T13:10:06.504Z,1014.02
2017-04-13T13:11:28.672Z,1014.11
2017-04-13T13:12:50.504Z,1014.1
2017-04-13T13:14:12.659Z,1014.13
2017-04-13T13:15:35.266Z,1014.11
2017-04-13T13:16:57.102Z,1014.01
2017-04-13T13:18:19.279Z,1013.99
2017-04-13T13:19:41.208Z,1013.94
2017-04-13T13:21:03.393Z,1013.81
2017-04-13T13:22:25.888Z,1013.8
2017-04-13T13:23:47.718Z,1013.83
2017-04-13T13:25:09.845Z,1013.68
2017-04-13T13:26:32.558Z,1013.79
2017-04-13T13:27:54.758Z,1013.82
2017-04-13T13:29:16.907Z,1013.74
2017-04-13T13:30:38.128Z,1013.79
2017-04-13T13:32:00.247Z,1013.72
2017-04-13T13:33:22.519Z,1013.78
2017-04-13T13:34:44.979Z,1013.81
2017-04-13T13:36:07.139Z,1013.81
2017-04-13T13:37:29.280Z,1013.82
2017-04-13T13:38:51.448Z,1013.88
2017-04-13T13:40:13.737Z,1013.89
2017-04-13T13:41:35.891Z,1013.86
2017-04-13T13:42:58.097Z,1013.8
2017-04-13T13:44:20.287Z,1013.87
2017-04-13T13:45:42.495Z,1013.93
2017-04-13T13:47:04.138Z,1013.97
2017-04-13T13:48:26.657Z,1014.01
2017-04-13T13:49:48.477Z,1014.03
2017-04-13T13:51:10.628Z,1014.02
2017-04-13T13:52:32.906Z,1013.96
2017-04-13T13:53:55.114Z,1014.02
2017-04-13T13:55:17.577Z,1013.95
2017-04-13T13:56:39.491Z,1014
2017-04-13T13:58:01.348Z,1014.08
2017-04-13T13:59:23.429Z,1014.1
2017-04-13T14:00:45.581Z,1014.15
2017-04-13T14:02:07.727Z,1014.06
2017-04-13T14:03:30.318Z,1014
2017-04-13T14:04:53.016Z,1013.94
2017-04-13T14:06:14.907Z,1013.88
2017-04-13T14:07:37.062Z,1013.95
2017-04-13T14:08:59.360Z,1013.81
2017-04-13T14:10:21.529Z,1013.92
2017-04-13T14:11:43.998Z,1013.86
2017-04-13T14:13:06.178Z,1013.88
2017-04-13T14:14:27.688Z,1013.87
2017-04-13T14:15:50.478Z,1013.83
2017-04-13T14:17:12.323Z,1013.86
2017-04-13T14:18:34.474Z,1013.87
2017-04-13T14:19:56.956Z,1013.89
2017-04-13T14:21:19.077Z,1013.87
2017-04-13T14:22:40.618Z,1013.98
2017-04-13T14:24:03.090Z,1013.98
2017-04-13T14:25:25.601Z,1013.88
2017-04-13T14:26:47.570Z,1013.93
2017-04-13T14:28:09.421Z,1013.96
2017-04-13T14:29:30.945Z,1013.94
2017-04-13T14:30:52.788Z,1013.92
2017-04-13T14:32:15.017Z,1014
2017-04-13T14:33:37.187Z,1013.98
2017-04-13T14:34:58.727Z,1014.06
2017-04-13T14:36:20.558Z,1013.88
2017-04-13T14:37:43.021Z,1014.07
2017-04-13T14:39:05.508Z,1013.91
2017-04-13T14:40:27.039Z,1013.99
2017-04-13T14:41:49.195Z,1013.99
2017-04-13T14:43:11.380Z,1013.99
2017-04-13T14:44:33.269Z,1014.09
2017-04-13T14:45:55.440Z,1014.13
2017-04-13T14:47:17.948Z,1014.06
2017-04-13T14:48:40.456Z,1014.16
2017-04-13T14:50:02.818Z,1014.12
2017-04-13T14:51:25.285Z,1013.97
2017-04-13T14:52:47.437Z,1014.06
2017-04-13T14:54:09.635Z,1014.04
2017-04-13T14:55:31.228Z,1014.06
2017-04-13T14:56:53.161Z,1014.03
2017-04-13T14:58:15.459Z,1014.02
2017-04-13T14:59:37.541Z,1014.07
2017-04-13T15:00:59.407Z,1014.09
2017-04-13T15:02:21.297Z,1014.08
2017-04-13T15:03:43.458Z,1014.1
2017-04-13T15:05:05.327Z,1014.14
2017-04-13T15:06:27.496Z,1014.11
2017-04-13T15:07:49.669Z,1014.18
2017-04-13T15:09:12.171Z,1014.12
2017-04-13T15:10:34.890Z,1014.1
2017-04-13T15:11:57.148Z,1014.13
2017-04-13T15:13:19.615Z,1014.18
2017-04-13T15:14:42.098Z,1014.14
2017-04-13T15:16:04.868Z,1014.16
2017-04-13T15:17:27.017Z,1014.12
2017-04-13T15:18:49.507Z,1014.19
2017-04-13T15:20:11.700Z,1014.19
2017-04-13T15:21:34.157Z,1014.18
2017-04-13T15:22:56.338Z,1014.16
2017-04-13T15:24:18.907Z,1014.18
2017-04-13T15:25:41.372Z,1014.16
2017-04-13T15:27:03.816Z,1014.2
2017-04-13T15:28:24.704Z,1014.15
2017-04-13T15:29:46.649Z,1014.14
2017-04-13T15:31:08.931Z,1014.17
2017-04-13T15:32:31.703Z,1014.14
2017-04-13T15:33:54.173Z,1014.26
2017-04-13T15:35:16.373Z,1014.31
2017-04-13T15:36:37.584Z,1014.26
2017-04-13T15:38:00.432Z,1014.19
2017-04-13T15:39:21.956Z,1014.18
2017-04-13T15:40:43.487Z,1014.14
2017-04-13T15:42:05.655Z,1014.23
2017-04-13T15:43:28.157Z,1014.23
2017-04-13T15:44:50.314Z,1014.19
2017-04-13T15:46:12.473Z,1014.29
2017-04-13T15:47:34.298Z,1014.32
2017-04-13T15:48:56.819Z,1014.39
2017-04-13T15:50:19.300Z,1014.48
2017-04-13T15:51:41.477Z,1014.5
2017-04-13T15:53:03.640Z,1014.36
2017-04-13T15:54:26.097Z,1014.48
2017-04-13T15:55:48.228Z,1014.38
2017-04-13T15:57:10.118Z,1014.33
2017-04-13T15:58:32.597Z,1014.42
2017-04-13T15:59:54.797Z,1014.46
2017-04-13T16:01:16.648Z,1014.44
2017-04-13T16:02:39.120Z,1014.38
2017-04-13T16:04:00.674Z,1014.36
2017-04-13T16:05:22.770Z,1014.38
2017-04-13T16:06:44.931Z,1014.34
2017-04-13T16:08:07.393Z,1014.34
2017-04-13T16:09:29.648Z,1014.41
2017-04-13T16:10:52.377Z,1014.37
2017-04-13T16:12:14.879Z,1014.42
2017-04-13T16:13:37.359Z,1014.41
2017-04-13T16:14:59.508Z,1014.4
2017-04-13T16:16:21.967Z,1014.37
2017-04-13T16:17:44.460Z,1014.43
2017-04-13T16:19:06.629Z,1014.4
2017-04-13T16:20:29.052Z,1014.45
2017-04-13T16:21:51.510Z,1014.44
2017-04-13T16:23:13.360Z,1014.44
2017-04-13T16:24:35.829Z,1014.52
2017-04-13T16:25:58.288Z,1014.47
2017-04-13T16:27:21.018Z,1014.52
2017-04-13T16:28:43.499Z,1014.51
2017-04-13T16:30:05.335Z,1014.46
2017-04-13T16:31:27.486Z,1014.51
2017-04-13T16:32:49.968Z,1014.55
2017-04-13T16:34:12.144Z,1014.58
2017-04-13T16:35:34.630Z,1014.51
2017-04-13T16:36:56.472Z,1014.54
2017-04-13T16:38:18.557Z,1014.58
2017-04-13T16:39:41.045Z,1014.61